Bookmark and Share
Track history (hours):
 

Moby Aki

Last reported at 2014-Apr-21 09:31 UTC. Time now 2014-Apr-21 10:16 UTC.
Position N 43°33' E 010°18'.

Length 175 m; draft 6.9 m.

Type: Passenger vessel. MMSI: 247132400.

NotesDate/timePositionNaut miles runAvg speedWind from/ knotsBaromVisibWave heightAir tempDewpointWater temp
2014-Apr-21 09:31N 43°33' E 010°18'0 0.0
2014-Apr-21 08:31N 43°33' E 010°18'0 0.0
2014-Apr-21 07:31N 43°33' E 010°18'0 0.0
2014-Apr-21 06:31N 43°33' E 010°18'0 0.0
2014-Apr-21 05:33N 43°33' E 010°18'5 5.0
2014-Apr-21 04:33N 43°29' E 010°14'1919.2
2014-Apr-21 03:33N 43°11' E 010°07'10 0.4
2014-Apr-19 23:34N 43°01' E 010°02'2424.0
2014-Apr-19 22:34N 43°25' E 010°09'1010.4
2014-Apr-19 21:33N 43°33' E 010°18'0 0.1
2014-Apr-19 20:33N 43°33' E 010°18'1919.1
2014-Apr-19 19:34N 43°15' E 010°09'12 1.0
2014-Apr-19 07:30N 43°03' E 010°04'2426.1
2014-Apr-19 06:33N 43°27' E 010°12'7 7.4
2014-Apr-19 05:32N 43°33' E 010°18'0 0.0
2014-Apr-19 04:33N 43°33' E 010°18'1110.9
2014-Apr-19 03:34N 43°24' E 010°11'62 2.4
2014-Apr-18 01:19N 42°22' E 009°55'2026.3
2014-Apr-18 00:33N 42°42' E 009°59'2626.5
2014-Apr-17 23:34N 43°08' E 010°06'2525.0
2014-Apr-17 22:33N 43°32' E 010°16'2 2.1
2014-Apr-17 21:33N 43°33' E 010°18'0 0.1
2014-Apr-17 20:33N 43°33' E 010°18'1818.7
2014-Apr-17 19:34N 43°16' E 010°09'14 1.2
2014-Apr-17 07:33N 43°02' E 010°02'2626.5
2014-Apr-17 06:34N 43°28' E 010°10'8 7.3
2014-Apr-17 05:31N 43°33' E 010°18'0 0.0
2014-Apr-17 04:31N 43°33' E 010°18'1111.8
2014-Apr-17 03:34N 43°23' E 010°12'15016.7
2014-Apr-16 18:33N 40°55' E 009°33'2 0.2
2014-Apr-16 07:23N 40°56' E 009°36'4 3.9
2014-Apr-16 06:29N 40°55' E 009°31'0 0.0
2014-Apr-16 05:32N 40°55' E 009°31'12818.0
2014-Apr-15 22:27N 43°01' E 010°03'1618.1
2014-Apr-15 21:33N 43°17' E 010°08'1716.7
2014-Apr-15 20:33N 43°32' E 010°17'1 1.2
2014-Apr-15 19:29N 43°33' E 010°18'0 0.0
2014-Apr-15 18:31N 43°33' E 010°18'0 0.0
2014-Apr-15 17:31N 43°33' E 010°18'0 0.0
2014-Apr-15 16:31N 43°33' E 010°18'0 0.0
2014-Apr-15 15:31N 43°33' E 010°18'0 0.0
2014-Apr-15 14:31N 43°33' E 010°18'0 0.0
2014-Apr-15 12:34N 43°33' E 010°18'0 0.0
2014-Apr-15 11:34N 43°33' E 010°18'0 0.0
2014-Apr-15 10:34N 43°33' E 010°18'0 0.0
2014-Apr-15 09:33N 43°33' E 010°18'0 0.0
2014-Apr-15 08:33N 43°33' E 010°18'0 0.0
2014-Apr-15 07:33N 43°33' E 010°18'0 0.0
2014-Apr-15 06:33N 43°33' E 010°18'0 0.0
2014-Apr-15 05:33N 43°33' E 010°18'13 6.4
2014-Apr-15 03:34N 43°21' E 010°11'1918.6
2014-Apr-15 02:33N 43°03' E 010°05'3 0.1
2014-Apr-13 22:05N 43°01' E 010°03'1018.8
2014-Apr-13 21:34N 43°10' E 010°07'1918.6
2014-Apr-13 20:34N 43°28' E 010°13'6 5.6
2014-Apr-13 19:28N 43°33' E 010°18'0 0.0
2014-Apr-13 18:33N 43°33' E 010°18'0 0.0
2014-Apr-13 17:30N 43°33' E 010°18'0 0.0
2014-Apr-13 16:33N 43°33' E 010°18'0 0.0
2014-Apr-13 15:33N 43°33' E 010°18'0 0.0
2014-Apr-13 14:32N 43°33' E 010°18'0 0.0
2014-Apr-13 13:32N 43°33' E 010°18'0 0.0
2014-Apr-13 12:32N 43°33' E 010°18'0 0.0
2014-Apr-13 11:32N 43°33' E 010°18'0 0.0
2014-Apr-13 10:32N 43°33' E 010°18'0 0.0
2014-Apr-13 09:19N 43°33' E 010°18'0 0.0
2014-Apr-13 08:16N 43°33' E 010°18'0 0.0
2014-Apr-13 07:31N 43°33' E 010°18'0 0.0
2014-Apr-13 06:31N 43°33' E 010°18'0 0.0
2014-Apr-13 05:34N 43°33' E 010°18'8 8.0
2014-Apr-13 04:33N 43°26' E 010°12'1919.2
2014-Apr-13 03:33N 43°07' E 010°07'13318.7
2014-Apr-12 20:25N 40°56' E 009°37'4 4.4
2014-Apr-12 19:31N 40°55' E 009°31'0 0.0
2014-Apr-12 18:31N 40°55' E 009°31'0 0.0
2014-Apr-12 17:24N 40°55' E 009°31'0 0.0
2014-Apr-12 16:33N 40°55' E 009°31'0 0.0
2014-Apr-12 14:30N 40°55' E 009°31'0 0.0
2014-Apr-12 11:32N 40°55' E 009°31'0 0.0
2014-Apr-12 09:32N 40°55' E 009°31'0 0.0
2014-Apr-12 06:28N 40°55' E 009°31'0 0.0
2014-Apr-12 05:31N 40°55' E 009°31'12717.2
2014-Apr-11 22:08N 43°01' E 010°02'1118.7
2014-Apr-11 21:33N 43°11' E 010°06'1918.6
2014-Apr-11 20:33N 43°29' E 010°12'6 5.7
2014-Apr-11 19:32N 43°33' E 010°18'0 0.0
2014-Apr-11 18:32N 43°33' E 010°18'0 0.0
2014-Apr-11 17:31N 43°33' E 010°18'0 0.0
2014-Apr-11 16:28N 43°33' E 010°18'0 0.0
2014-Apr-11 15:32N 43°33' E 010°18'0 0.0
2014-Apr-11 14:32N 43°33' E 010°18'0 0.0
2014-Apr-11 13:32N 43°33' E 010°18'0 0.0
2014-Apr-11 12:31N 43°33' E 010°18'0 0.0
2014-Apr-11 11:31N 43°33' E 010°18'0 0.0
2014-Apr-11 10:28N 43°33' E 010°18'  

Dump ship's entire track history

sailing weather and tide predictions

Moby Aki — IBVV — position and weather